sensor_id;sensor_type;location;lat;lon;timestamp;P1;durP1;ratioP1;P2;durP2;ratioP2
65879;SDS011;52661;51.364;6.054;2024-02-04T00:01:38;3.35;;;1.70;;
65879;SDS011;52661;51.364;6.054;2024-02-04T00:04:04;5.28;;;1.90;;
65879;SDS011;52661;51.364;6.054;2024-02-04T00:06:29;4.90;;;1.92;;
65879;SDS011;52661;51.364;6.054;2024-02-04T00:08:55;2.05;;;1.00;;
65879;SDS011;52661;51.364;6.054;2024-02-04T00:11:20;3.90;;;2.10;;
65879;SDS011;52661;51.364;6.054;2024-02-04T00:13:45;4.22;;;1.75;;
65879;SDS011;52661;51.364;6.054;2024-02-04T00:16:11;5.18;;;2.03;;
65879;SDS011;52661;51.364;6.054;2024-02-04T00:18:36;3.88;;;2.08;;
65879;SDS011;52661;51.364;6.054;2024-02-04T00:21:01;5.05;;;2.65;;
65879;SDS011;52661;51.364;6.054;2024-02-04T00:23:27;4.45;;;2.15;;
65879;SDS011;52661;51.364;6.054;2024-02-04T00:25:52;5.73;;;2.37;;
65879;SDS011;52661;51.364;6.054;2024-02-04T00:28:18;4.60;;;1.93;;
65879;SDS011;52661;51.364;6.054;2024-02-04T00:30:43;3.42;;;1.40;;
65879;SDS011;52661;51.364;6.054;2024-02-04T00:33:09;3.80;;;1.40;;
65879;SDS011;52661;51.364;6.054;2024-02-04T00:35:34;4.03;;;1.60;;
65879;SDS011;52661;51.364;6.054;2024-02-04T00:37:59;3.40;;;1.42;;
65879;SDS011;52661;51.364;6.054;2024-02-04T00:40:25;2.35;;;1.17;;
65879;SDS011;52661;51.364;6.054;2024-02-04T00:42:51;1.42;;;0.80;;
65879;SDS011;52661;51.364;6.054;2024-02-04T00:45:17;3.42;;;1.80;;
65879;SDS011;52661;51.364;6.054;2024-02-04T00:47:42;2.13;;;1.23;;
65879;SDS011;52661;51.364;6.054;2024-02-04T00:50:07;1.03;;;0.50;;
65879;SDS011;52661;51.364;6.054;2024-02-04T00:52:33;1.60;;;0.85;;
65879;SDS011;52661;51.364;6.054;2024-02-04T00:54:58;3.13;;;1.43;;
65879;SDS011;52661;51.364;6.054;2024-02-04T00:57:24;3.37;;;1.33;;
65879;SDS011;52661;51.364;6.054;2024-02-04T00:59:49;3.20;;;1.23;;
65879;SDS011;52661;51.364;6.054;2024-02-04T01:02:15;2.08;;;0.73;;
65879;SDS011;52661;51.364;6.054;2024-02-04T01:04:41;2.38;;;0.80;;
65879;SDS011;52661;51.364;6.054;2024-02-04T01:07:06;3.35;;;1.45;;
65879;SDS011;52661;51.364;6.054;2024-02-04T01:09:31;3.73;;;1.37;;
65879;SDS011;52661;51.364;6.054;2024-02-04T01:11:57;3.70;;;1.37;;
65879;SDS011;52661;51.364;6.054;2024-02-04T01:14:22;3.83;;;1.43;;
65879;SDS011;52661;51.364;6.054;2024-02-04T01:16:47;4.03;;;1.48;;
65879;SDS011;52661;51.364;6.054;2024-02-04T01:19:13;2.40;;;1.00;;
65879;SDS011;52661;51.364;6.054;2024-02-04T01:21:38;1.92;;;0.77;;
65879;SDS011;52661;51.364;6.054;2024-02-04T01:24:04;1.50;;;0.82;;
65879;SDS011;52661;51.364;6.054;2024-02-04T01:26:29;2.25;;;1.25;;
65879;SDS011;52661;51.364;6.054;2024-02-04T01:28:55;3.70;;;1.50;;
65879;SDS011;52661;51.364;6.054;2024-02-04T01:31:20;2.37;;;0.83;;
65879;SDS011;52661;51.364;6.054;2024-02-04T01:33:45;3.33;;;1.73;;
65879;SDS011;52661;51.364;6.054;2024-02-04T01:36:11;2.97;;;1.55;;
65879;SDS011;52661;51.364;6.054;2024-02-04T01:38:36;3.65;;;1.38;;
65879;SDS011;52661;51.364;6.054;2024-02-04T01:41:01;3.37;;;1.43;;
65879;SDS011;52661;51.364;6.054;2024-02-04T01:43:27;3.13;;;1.47;;
65879;SDS011;52661;51.364;6.054;2024-02-04T01:45:52;4.63;;;1.47;;
65879;SDS011;52661;51.364;6.054;2024-02-04T01:48:18;3.78;;;1.58;;
65879;SDS011;52661;51.364;6.054;2024-02-04T01:50:45;3.40;;;1.23;;
65879;SDS011;52661;51.364;6.054;2024-02-04T01:55:38;2.35;;;1.20;;
65879;SDS011;52661;51.364;6.054;2024-02-04T01:58:04;2.50;;;0.95;;
65879;SDS011;52661;51.364;6.054;2024-02-04T02:00:29;2.40;;;1.08;;
65879;SDS011;52661;51.364;6.054;2024-02-04T02:02:55;1.50;;;0.80;;
65879;SDS011;52661;51.364;6.054;2024-02-04T02:05:22;3.33;;;1.10;;
65879;SDS011;52661;51.364;6.054;2024-02-04T02:07:48;3.20;;;1.27;;
65879;SDS011;52661;51.364;6.054;2024-02-04T02:10:17;3.47;;;1.25;;
65879;SDS011;52661;51.364;6.054;2024-02-04T02:12:46;3.17;;;1.20;;
65879;SDS011;52661;51.364;6.054;2024-02-04T02:15:16;3.13;;;1.63;;
65879;SDS011;52661;51.364;6.054;2024-02-04T02:17:49;3.53;;;1.13;;
65879;SDS011;52661;51.364;6.054;2024-02-04T02:20:21;2.42;;;1.08;;
65879;SDS011;52661;51.364;6.054;2024-02-04T02:23:10;3.35;;;1.02;;
65879;SDS011;52661;51.364;6.054;2024-02-04T02:25:39;2.63;;;1.08;;
65879;SDS011;52661;51.364;6.054;2024-02-04T02:28:06;4.03;;;1.48;;
65879;SDS011;52661;51.364;6.054;2024-02-04T02:30:31;3.55;;;1.70;;
65879;SDS011;52661;51.364;6.054;2024-02-04T02:32:57;5.07;;;2.13;;
65879;SDS011;52661;51.364;6.054;2024-02-04T02:35:22;3.95;;;1.52;;
65879;SDS011;52661;51.364;6.054;2024-02-04T02:40:45;4.00;;;1.75;;
65879;SDS011;52661;51.364;6.054;2024-02-04T02:43:14;4.18;;;1.55;;
65879;SDS011;52661;51.364;6.054;2024-02-04T02:45:44;3.45;;;1.08;;
65879;SDS011;52661;51.364;6.054;2024-02-04T02:48:10;2.08;;;0.85;;
65879;SDS011;52661;51.364;6.054;2024-02-04T02:50:37;4.38;;;1.25;;
65879;SDS011;52661;51.364;6.054;2024-02-04T02:53:02;4.50;;;1.75;;
65879;SDS011;52661;51.364;6.054;2024-02-04T02:55:28;5.68;;;2.35;;
65879;SDS011;52661;51.364;6.054;2024-02-04T02:57:53;3.77;;;2.10;;
65879;SDS011;52661;51.364;6.054;2024-02-04T03:00:19;4.53;;;2.23;;
65879;SDS011;52661;51.364;6.054;2024-02-04T03:02:44;4.97;;;2.17;;
65879;SDS011;52661;51.364;6.054;2024-02-04T03:05:10;5.30;;;2.23;;
65879;SDS011;52661;51.364;6.054;2024-02-04T03:07:36;5.03;;;2.35;;
65879;SDS011;52661;51.364;6.054;2024-02-04T03:10:02;5.50;;;2.30;;
65879;SDS011;52661;51.364;6.054;2024-02-04T03:12:27;9.50;;;3.72;;
65879;SDS011;52661;51.364;6.054;2024-02-04T03:14:53;8.67;;;3.17;;
65879;SDS011;52661;51.364;6.054;2024-02-04T03:17:18;8.55;;;3.97;;
65879;SDS011;52661;51.364;6.054;2024-02-04T03:19:46;7.75;;;3.17;;
65879;SDS011;52661;51.364;6.054;2024-02-04T03:22:12;6.78;;;3.30;;
65879;SDS011;52661;51.364;6.054;2024-02-04T03:24:37;11.00;;;2.92;;
65879;SDS011;52661;51.364;6.054;2024-02-04T03:27:03;10.10;;;3.78;;
65879;SDS011;52661;51.364;6.054;2024-02-04T03:29:28;8.95;;;3.45;;
65879;SDS011;52661;51.364;6.054;2024-02-04T03:31:55;6.43;;;2.33;;
65879;SDS011;52661;51.364;6.054;2024-02-04T03:34:21;5.97;;;2.65;;
65879;SDS011;52661;51.364;6.054;2024-02-04T03:36:46;3.97;;;1.63;;
65879;SDS011;52661;51.364;6.054;2024-02-04T03:39:11;2.55;;;1.98;;
65879;SDS011;52661;51.364;6.054;2024-02-04T03:41:37;4.95;;;2.15;;
65879;SDS011;52661;51.364;6.054;2024-02-04T03:44:02;7.67;;;3.20;;
65879;SDS011;52661;51.364;6.054;2024-02-04T03:46:27;9.25;;;3.13;;
65879;SDS011;52661;51.364;6.054;2024-02-04T03:48:53;6.03;;;2.73;;
65879;SDS011;52661;51.364;6.054;2024-02-04T03:51:19;8.13;;;2.70;;
65879;SDS011;52661;51.364;6.054;2024-02-04T03:53:44;9.93;;;3.55;;
65879;SDS011;52661;51.364;6.054;2024-02-04T03:56:10;8.02;;;2.30;;
65879;SDS011;52661;51.364;6.054;2024-02-04T03:58:36;9.02;;;2.65;;
65879;SDS011;52661;51.364;6.054;2024-02-04T04:01:01;9.05;;;1.95;;
65879;SDS011;52661;51.364;6.054;2024-02-04T04:03:26;7.38;;;3.38;;
65879;SDS011;52661;51.364;6.054;2024-02-04T04:05:54;5.23;;;3.10;;
65879;SDS011;52661;51.364;6.054;2024-02-04T04:08:20;9.73;;;3.13;;
65879;SDS011;52661;51.364;6.054;2024-02-04T04:10:45;7.83;;;4.13;;
65879;SDS011;52661;51.364;6.054;2024-02-04T04:13:11;6.00;;;2.75;;
65879;SDS011;52661;51.364;6.054;2024-02-04T04:15:37;10.52;;;2.85;;
65879;SDS011;52661;51.364;6.054;2024-02-04T04:18:02;9.30;;;3.27;;
65879;SDS011;52661;51.364;6.054;2024-02-04T04:20:28;9.07;;;2.75;;
65879;SDS011;52661;51.364;6.054;2024-02-04T04:22:54;8.83;;;3.80;;
65879;SDS011;52661;51.364;6.054;2024-02-04T04:25:19;8.13;;;3.67;;
65879;SDS011;52661;51.364;6.054;2024-02-04T04:27:44;6.60;;;2.63;;
65879;SDS011;52661;51.364;6.054;2024-02-04T04:30:10;8.25;;;3.28;;
65879;SDS011;52661;51.364;6.054;2024-02-04T04:32:35;6.85;;;3.83;;
65879;SDS011;52661;51.364;6.054;2024-02-04T04:35:00;11.57;;;4.30;;
65879;SDS011;52661;51.364;6.054;2024-02-04T04:37:26;10.75;;;3.97;;
65879;SDS011;52661;51.364;6.054;2024-02-04T04:39:51;7.47;;;3.03;;
65879;SDS011;52661;51.364;6.054;2024-02-04T04:42:17;9.48;;;3.72;;
65879;SDS011;52661;51.364;6.054;2024-02-04T04:44:42;9.35;;;3.35;;
65879;SDS011;52661;51.364;6.054;2024-02-04T04:47:07;6.55;;;2.47;;
65879;SDS011;52661;51.364;6.054;2024-02-04T04:49:33;8.83;;;3.80;;
65879;SDS011;52661;51.364;6.054;2024-02-04T04:51:58;12.33;;;4.23;;
65879;SDS011;52661;51.364;6.054;2024-02-04T04:54:23;16.13;;;4.65;;
65879;SDS011;52661;51.364;6.054;2024-02-04T04:56:49;9.80;;;4.60;;
65879;SDS011;52661;51.364;6.054;2024-02-04T04:59:17;11.40;;;4.20;;
65879;SDS011;52661;51.364;6.054;2024-02-04T05:01:46;8.05;;;3.30;;
65879;SDS011;52661;51.364;6.054;2024-02-04T05:04:12;13.15;;;5.03;;
65879;SDS011;52661;51.364;6.054;2024-02-04T05:06:37;15.73;;;5.53;;
65879;SDS011;52661;51.364;6.054;2024-02-04T05:09:03;12.93;;;5.83;;
65879;SDS011;52661;51.364;6.054;2024-02-04T05:11:28;14.47;;;5.37;;
65879;SDS011;52661;51.364;6.054;2024-02-04T05:13:53;4.50;;;2.40;;
65879;SDS011;52661;51.364;6.054;2024-02-04T05:16:19;11.65;;;4.90;;
65879;SDS011;52661;51.364;6.054;2024-02-04T05:18:45;10.75;;;4.75;;
65879;SDS011;52661;51.364;6.054;2024-02-04T05:21:10;9.47;;;4.83;;
65879;SDS011;52661;51.364;6.054;2024-02-04T05:23:36;13.50;;;5.45;;
65879;SDS011;52661;51.364;6.054;2024-02-04T05:26:05;16.95;;;4.60;;
65879;SDS011;52661;51.364;6.054;2024-02-04T05:28:30;14.75;;;4.90;;
65879;SDS011;52661;51.364;6.054;2024-02-04T05:30:57;18.23;;;5.80;;
65879;SDS011;52661;51.364;6.054;2024-02-04T05:33:22;11.73;;;4.60;;
65879;SDS011;52661;51.364;6.054;2024-02-04T05:35:47;7.97;;;3.63;;
65879;SDS011;52661;51.364;6.054;2024-02-04T05:38:13;11.25;;;4.93;;
65879;SDS011;52661;51.364;6.054;2024-02-04T05:40:38;18.23;;;4.80;;
65879;SDS011;52661;51.364;6.054;2024-02-04T05:43:03;20.87;;;5.73;;
65879;SDS011;52661;51.364;6.054;2024-02-04T05:45:32;12.20;;;4.85;;
65879;SDS011;52661;51.364;6.054;2024-02-04T05:47:57;12.18;;;5.50;;
65879;SDS011;52661;51.364;6.054;2024-02-04T05:50:23;11.05;;;4.22;;
65879;SDS011;52661;51.364;6.054;2024-02-04T05:52:48;11.47;;;4.27;;
65879;SDS011;52661;51.364;6.054;2024-02-04T05:55:14;10.13;;;3.95;;
65879;SDS011;52661;51.364;6.054;2024-02-04T05:57:39;11.13;;;4.13;;
65879;SDS011;52661;51.364;6.054;2024-02-04T06:00:05;13.13;;;5.25;;
65879;SDS011;52661;51.364;6.054;2024-02-04T06:02:31;13.90;;;4.97;;
65879;SDS011;52661;51.364;6.054;2024-02-04T06:04:56;15.40;;;4.57;;
65879;SDS011;52661;51.364;6.054;2024-02-04T06:07:22;18.67;;;4.93;;
65879;SDS011;52661;51.364;6.054;2024-02-04T06:09:47;8.82;;;3.65;;
65879;SDS011;52661;51.364;6.054;2024-02-04T06:12:12;14.07;;;5.07;;
65879;SDS011;52661;51.364;6.054;2024-02-04T06:14:38;9.50;;;4.03;;
65879;SDS011;52661;51.364;6.054;2024-02-04T06:17:04;7.90;;;3.40;;
65879;SDS011;52661;51.364;6.054;2024-02-04T06:19:30;9.30;;;4.22;;
65879;SDS011;52661;51.364;6.054;2024-02-04T06:21:55;10.60;;;3.77;;
65879;SDS011;52661;51.364;6.054;2024-02-04T06:24:20;9.93;;;4.07;;
65879;SDS011;52661;51.364;6.054;2024-02-04T06:26:46;11.93;;;4.38;;
65879;SDS011;52661;51.364;6.054;2024-02-04T06:29:11;8.93;;;3.40;;
65879;SDS011;52661;51.364;6.054;2024-02-04T06:31:37;11.85;;;4.15;;
65879;SDS011;52661;51.364;6.054;2024-02-04T06:34:02;8.43;;;3.17;;
65879;SDS011;52661;51.364;6.054;2024-02-04T06:36:27;4.47;;;1.98;;
65879;SDS011;52661;51.364;6.054;2024-02-04T06:38:53;9.77;;;4.28;;
65879;SDS011;52661;51.364;6.054;2024-02-04T06:41:18;8.48;;;2.92;;
65879;SDS011;52661;51.364;6.054;2024-02-04T06:43:43;8.87;;;3.00;;
65879;SDS011;52661;51.364;6.054;2024-02-04T06:46:09;6.23;;;2.33;;
65879;SDS011;52661;51.364;6.054;2024-02-04T06:48:34;5.60;;;2.00;;
65879;SDS011;52661;51.364;6.054;2024-02-04T06:50:59;4.87;;;1.53;;
65879;SDS011;52661;51.364;6.054;2024-02-04T06:53:25;8.38;;;2.95;;
65879;SDS011;52661;51.364;6.054;2024-02-04T06:55:50;7.05;;;2.58;;
65879;SDS011;52661;51.364;6.054;2024-02-04T06:58:16;9.90;;;3.23;;
65879;SDS011;52661;51.364;6.054;2024-02-04T07:00:41;7.40;;;2.60;;
65879;SDS011;52661;51.364;6.054;2024-02-04T07:03:06;8.13;;;3.27;;
65879;SDS011;52661;51.364;6.054;2024-02-04T07:05:32;6.33;;;2.60;;
65879;SDS011;52661;51.364;6.054;2024-02-04T07:07:58;8.95;;;3.10;;
65879;SDS011;52661;51.364;6.054;2024-02-04T07:10:24;8.70;;;3.40;;
65879;SDS011;52661;51.364;6.054;2024-02-04T07:12:49;8.60;;;2.43;;
65879;SDS011;52661;51.364;6.054;2024-02-04T07:15:14;10.77;;;3.83;;
65879;SDS011;52661;51.364;6.054;2024-02-04T07:17:40;9.40;;;2.90;;
65879;SDS011;52661;51.364;6.054;2024-02-04T07:20:05;6.83;;;2.60;;
65879;SDS011;52661;51.364;6.054;2024-02-04T07:22:31;8.40;;;2.38;;
65879;SDS011;52661;51.364;6.054;2024-02-04T07:24:56;5.17;;;1.97;;
65879;SDS011;52661;51.364;6.054;2024-02-04T07:27:22;6.25;;;2.50;;
65879;SDS011;52661;51.364;6.054;2024-02-04T07:29:47;7.03;;;1.93;;
65879;SDS011;52661;51.364;6.054;2024-02-04T07:32:13;5.73;;;2.13;;
65879;SDS011;52661;51.364;6.054;2024-02-04T07:34:39;4.18;;;1.67;;
65879;SDS011;52661;51.364;6.054;2024-02-04T07:37:05;4.25;;;1.98;;
65879;SDS011;52661;51.364;6.054;2024-02-04T07:39:30;4.90;;;1.87;;
65879;SDS011;52661;51.364;6.054;2024-02-04T07:41:56;10.00;;;3.65;;
65879;SDS011;52661;51.364;6.054;2024-02-04T07:44:25;8.30;;;2.70;;
65879;SDS011;52661;51.364;6.054;2024-02-04T07:46:51;6.57;;;2.47;;
65879;SDS011;52661;51.364;6.054;2024-02-04T07:49:16;7.53;;;3.00;;
65879;SDS011;52661;51.364;6.054;2024-02-04T07:51:42;7.33;;;2.70;;
65879;SDS011;52661;51.364;6.054;2024-02-04T07:54:07;6.90;;;2.40;;
65879;SDS011;52661;51.364;6.054;2024-02-04T07:56:32;7.43;;;2.37;;
65879;SDS011;52661;51.364;6.054;2024-02-04T07:58:58;6.13;;;2.13;;
65879;SDS011;52661;51.364;6.054;2024-02-04T08:01:23;4.32;;;2.17;;
65879;SDS011;52661;51.364;6.054;2024-02-04T08:03:49;4.97;;;2.15;;
65879;SDS011;52661;51.364;6.054;2024-02-04T08:06:14;11.45;;;2.88;;
65879;SDS011;52661;51.364;6.054;2024-02-04T08:08:39;8.20;;;2.60;;
65879;SDS011;52661;51.364;6.054;2024-02-04T08:11:07;6.72;;;2.33;;
65879;SDS011;52661;51.364;6.054;2024-02-04T08:13:32;4.77;;;2.00;;
65879;SDS011;52661;51.364;6.054;2024-02-04T08:15:57;6.90;;;2.20;;
65879;SDS011;52661;51.364;6.054;2024-02-04T08:18:23;3.20;;;1.52;;
65879;SDS011;52661;51.364;6.054;2024-02-04T08:20:48;6.27;;;2.07;;
65879;SDS011;52661;51.364;6.054;2024-02-04T08:23:13;8.00;;;2.40;;
65879;SDS011;52661;51.364;6.054;2024-02-04T08:25:39;7.22;;;2.47;;
65879;SDS011;52661;51.364;6.054;2024-02-04T08:28:04;9.98;;;2.35;;
65879;SDS011;52661;51.364;6.054;2024-02-04T08:30:29;4.93;;;1.55;;
65879;SDS011;52661;51.364;6.054;2024-02-04T08:32:55;3.42;;;1.48;;
65879;SDS011;52661;51.364;6.054;2024-02-04T08:35:20;7.25;;;2.25;;
65879;SDS011;52661;51.364;6.054;2024-02-04T08:37:46;7.63;;;1.75;;
65879;SDS011;52661;51.364;6.054;2024-02-04T08:40:11;5.83;;;1.70;;
65879;SDS011;52661;51.364;6.054;2024-02-04T08:42:36;5.78;;;2.38;;
65879;SDS011;52661;51.364;6.054;2024-02-04T08:45:02;5.07;;;1.47;;
65879;SDS011;52661;51.364;6.054;2024-02-04T08:47:27;5.85;;;1.88;;
65879;SDS011;52661;51.364;6.054;2024-02-04T08:49:53;4.33;;;1.90;;
65879;SDS011;52661;51.364;6.054;2024-02-04T08:52:18;4.22;;;1.40;;
65879;SDS011;52661;51.364;6.054;2024-02-04T08:54:43;4.47;;;1.40;;
65879;SDS011;52661;51.364;6.054;2024-02-04T08:57:09;4.10;;;1.48;;
65879;SDS011;52661;51.364;6.054;2024-02-04T08:59:34;5.10;;;1.55;;
65879;SDS011;52661;51.364;6.054;2024-02-04T09:01:59;3.53;;;1.47;;
65879;SDS011;52661;51.364;6.054;2024-02-04T09:04:25;3.33;;;1.57;;
65879;SDS011;52661;51.364;6.054;2024-02-04T09:06:50;6.73;;;1.80;;
65879;SDS011;52661;51.364;6.054;2024-02-04T09:09:15;3.10;;;1.37;;
65879;SDS011;52661;51.364;6.054;2024-02-04T09:11:41;4.07;;;1.80;;
65879;SDS011;52661;51.364;6.054;2024-02-04T09:14:06;6.22;;;2.13;;
65879;SDS011;52661;51.364;6.054;2024-02-04T09:16:32;4.97;;;2.30;;
65879;SDS011;52661;51.364;6.054;2024-02-04T09:18:57;5.20;;;2.10;;
65879;SDS011;52661;51.364;6.054;2024-02-04T09:21:22;8.40;;;2.17;;
65879;SDS011;52661;51.364;6.054;2024-02-04T09:23:48;4.03;;;1.87;;
65879;SDS011;52661;51.364;6.054;2024-02-04T09:26:13;5.35;;;2.13;;
65879;SDS011;52661;51.364;6.054;2024-02-04T09:28:39;5.72;;;2.25;;
65879;SDS011;52661;51.364;6.054;2024-02-04T09:31:07;3.05;;;1.15;;
65879;SDS011;52661;51.364;6.054;2024-02-04T09:33:33;6.60;;;2.85;;
65879;SDS011;52661;51.364;6.054;2024-02-04T09:35:58;10.60;;;2.93;;
65879;SDS011;52661;51.364;6.054;2024-02-04T09:38:23;5.80;;;1.97;;
65879;SDS011;52661;51.364;6.054;2024-02-04T09:40:49;7.63;;;2.63;;
65879;SDS011;52661;51.364;6.054;2024-02-04T09:43:14;3.50;;;1.75;;
65879;SDS011;52661;51.364;6.054;2024-02-04T09:45:40;4.18;;;1.95;;
65879;SDS011;52661;51.364;6.054;2024-02-04T09:48:06;4.80;;;1.90;;
65879;SDS011;52661;51.364;6.054;2024-02-04T09:50:34;2.17;;;1.17;;
65879;SDS011;52661;51.364;6.054;2024-02-04T09:52:59;5.10;;;1.38;;
65879;SDS011;52661;51.364;6.054;2024-02-04T09:55:26;3.15;;;1.17;;
65879;SDS011;52661;51.364;6.054;2024-02-04T09:57:55;3.47;;;1.17;;
65879;SDS011;52661;51.364;6.054;2024-02-04T10:00:21;4.00;;;1.25;;
65879;SDS011;52661;51.364;6.054;2024-02-04T10:02:49;4.70;;;1.70;;
65879;SDS011;52661;51.364;6.054;2024-02-04T10:05:15;2.20;;;0.85;;
65879;SDS011;52661;51.364;6.054;2024-02-04T10:07:40;5.60;;;2.00;;
65879;SDS011;52661;51.364;6.054;2024-02-04T10:10:06;3.63;;;1.25;;
65879;SDS011;52661;51.364;6.054;2024-02-04T10:12:32;5.07;;;2.00;;
65879;SDS011;52661;51.364;6.054;2024-02-04T10:14:58;2.00;;;0.93;;
65879;SDS011;52661;51.364;6.054;2024-02-04T10:17:24;5.80;;;1.48;;
65879;SDS011;52661;51.364;6.054;2024-02-04T10:19:50;4.15;;;1.30;;
65879;SDS011;52661;51.364;6.054;2024-02-04T10:22:15;4.13;;;1.60;;
65879;SDS011;52661;51.364;6.054;2024-02-04T10:24:42;7.75;;;1.52;;
65879;SDS011;52661;51.364;6.054;2024-02-04T10:27:09;3.45;;;1.48;;
65879;SDS011;52661;51.364;6.054;2024-02-04T10:29:35;4.13;;;1.17;;
65879;SDS011;52661;51.364;6.054;2024-02-04T10:32:01;4.22;;;1.45;;
65879;SDS011;52661;51.364;6.054;2024-02-04T10:34:26;3.80;;;1.93;;
65879;SDS011;52661;51.364;6.054;2024-02-04T10:36:52;3.05;;;1.25;;
65879;SDS011;52661;51.364;6.054;2024-02-04T10:39:19;4.88;;;1.92;;
65879;SDS011;52661;51.364;6.054;2024-02-04T10:41:53;2.25;;;0.77;;
65879;SDS011;52661;51.364;6.054;2024-02-04T10:44:21;4.60;;;1.40;;
65879;SDS011;52661;51.364;6.054;2024-02-04T10:46:48;4.97;;;1.67;;
65879;SDS011;52661;51.364;6.054;2024-02-04T10:49:15;3.13;;;1.05;;
65879;SDS011;52661;51.364;6.054;2024-02-04T10:51:41;3.38;;;1.08;;
65879;SDS011;52661;51.364;6.054;2024-02-04T10:54:07;5.00;;;1.55;;
65879;SDS011;52661;51.364;6.054;2024-02-04T10:56:42;4.80;;;2.05;;
65879;SDS011;52661;51.364;6.054;2024-02-04T10:59:10;5.68;;;1.92;;
65879;SDS011;52661;51.364;6.054;2024-02-04T11:01:37;3.33;;;1.20;;
65879;SDS011;52661;51.364;6.054;2024-02-04T11:04:04;3.72;;;1.02;;
65879;SDS011;52661;51.364;6.054;2024-02-04T11:06:31;2.55;;;0.77;;
65879;SDS011;52661;51.364;6.054;2024-02-04T11:08:57;2.30;;;1.17;;
65879;SDS011;52661;51.364;6.054;2024-02-04T11:11:24;3.65;;;1.45;;
65879;SDS011;52661;51.364;6.054;2024-02-04T11:13:53;4.07;;;1.20;;
65879;SDS011;52661;51.364;6.054;2024-02-04T11:27:09;2.05;;;0.90;;
65879;SDS011;52661;51.364;6.054;2024-02-04T11:29:35;2.83;;;1.38;;
65879;SDS011;52661;51.364;6.054;2024-02-04T11:32:01;2.60;;;1.10;;
65879;SDS011;52661;51.364;6.054;2024-02-04T11:34:27;2.10;;;0.73;;
65879;SDS011;52661;51.364;6.054;2024-02-04T11:36:52;5.97;;;2.28;;
65879;SDS011;52661;51.364;6.054;2024-02-04T11:39:18;1.48;;;0.73;;
65879;SDS011;52661;51.364;6.054;2024-02-04T11:41:49;3.00;;;1.17;;
65879;SDS011;52661;51.364;6.054;2024-02-04T11:44:21;5.78;;;1.50;;
65879;SDS011;52661;51.364;6.054;2024-02-04T11:46:47;4.28;;;1.13;;
65879;SDS011;52661;51.364;6.054;2024-02-04T11:49:19;1.20;;;0.30;;
65879;SDS011;52661;51.364;6.054;2024-02-04T11:51:47;5.38;;;1.33;;
65879;SDS011;52661;51.364;6.054;2024-02-04T11:54:14;2.13;;;0.82;;
65879;SDS011;52661;51.364;6.054;2024-02-04T11:56:40;3.28;;;1.17;;
65879;SDS011;52661;51.364;6.054;2024-02-04T11:59:06;3.33;;;1.58;;
65879;SDS011;52661;51.364;6.054;2024-02-04T12:01:32;3.00;;;1.05;;
65879;SDS011;52661;51.364;6.054;2024-02-04T12:04:08;4.35;;;1.15;;
65879;SDS011;52661;51.364;6.054;2024-02-04T12:06:39;4.80;;;2.03;;
65879;SDS011;52661;51.364;6.054;2024-02-04T12:09:06;2.90;;;1.42;;
65879;SDS011;52661;51.364;6.054;2024-02-04T12:11:34;4.75;;;1.58;;
65879;SDS011;52661;51.364;6.054;2024-02-04T12:14:00;6.07;;;1.45;;
65879;SDS011;52661;51.364;6.054;2024-02-04T12:16:26;2.88;;;1.10;;
65879;SDS011;52661;51.364;6.054;2024-02-04T12:18:52;2.40;;;1.40;;
65879;SDS011;52661;51.364;6.054;2024-02-04T12:21:17;3.33;;;1.42;;
65879;SDS011;52661;51.364;6.054;2024-02-04T12:23:43;3.38;;;1.67;;
65879;SDS011;52661;51.364;6.054;2024-02-04T12:26:08;3.55;;;1.45;;
65879;SDS011;52661;51.364;6.054;2024-02-04T12:28:34;3.92;;;1.50;;
65879;SDS011;52661;51.364;6.054;2024-02-04T12:30:59;3.47;;;1.03;;
65879;SDS011;52661;51.364;6.054;2024-02-04T12:33:24;2.92;;;1.35;;
65879;SDS011;52661;51.364;6.054;2024-02-04T12:35:50;7.47;;;1.55;;
65879;SDS011;52661;51.364;6.054;2024-02-04T12:38:17;5.22;;;1.42;;
65879;SDS011;52661;51.364;6.054;2024-02-04T12:40:42;2.78;;;1.17;;
65879;SDS011;52661;51.364;6.054;2024-02-04T12:43:10;3.20;;;1.83;;
65879;SDS011;52661;51.364;6.054;2024-02-04T12:45:36;4.80;;;1.65;;
65879;SDS011;52661;51.364;6.054;2024-02-04T12:48:02;1.88;;;0.90;;
65879;SDS011;52661;51.364;6.054;2024-02-04T12:50:28;5.47;;;2.20;;
65879;SDS011;52661;51.364;6.054;2024-02-04T12:53:06;2.17;;;0.75;;
65879;SDS011;52661;51.364;6.054;2024-02-04T12:55:34;3.85;;;1.75;;
65879;SDS011;52661;51.364;6.054;2024-02-04T13:00:29;4.38;;;1.27;;
65879;SDS011;52661;51.364;6.054;2024-02-04T13:02:54;1.17;;;0.57;;
65879;SDS011;52661;51.364;6.054;2024-02-04T13:05:23;3.95;;;1.23;;
65879;SDS011;52661;51.364;6.054;2024-02-04T13:07:51;4.60;;;1.70;;
65879;SDS011;52661;51.364;6.054;2024-02-04T13:10:17;3.20;;;1.25;;
65879;SDS011;52661;51.364;6.054;2024-02-04T13:12:43;4.30;;;1.05;;
65879;SDS011;52661;51.364;6.054;2024-02-04T13:15:08;5.70;;;1.75;;
65879;SDS011;52661;51.364;6.054;2024-02-04T13:17:34;4.63;;;1.13;;
65879;SDS011;52661;51.364;6.054;2024-02-04T13:19:59;3.33;;;1.20;;
65879;SDS011;52661;51.364;6.054;2024-02-04T13:22:24;3.97;;;1.50;;
65879;SDS011;52661;51.364;6.054;2024-02-04T13:24:50;4.20;;;1.00;;
65879;SDS011;52661;51.364;6.054;2024-02-04T13:27:15;4.00;;;1.27;;
65879;SDS011;52661;51.364;6.054;2024-02-04T13:29:42;3.72;;;1.65;;
65879;SDS011;52661;51.364;6.054;2024-02-04T13:32:07;3.93;;;1.27;;
65879;SDS011;52661;51.364;6.054;2024-02-04T13:34:33;1.55;;;0.68;;
65879;SDS011;52661;51.364;6.054;2024-02-04T13:36:58;2.75;;;1.30;;
65879;SDS011;52661;51.364;6.054;2024-02-04T13:39:24;3.92;;;1.35;;
65879;SDS011;52661;51.364;6.054;2024-02-04T13:41:49;3.90;;;1.50;;
65879;SDS011;52661;51.364;6.054;2024-02-04T13:44:14;3.03;;;1.07;;
65879;SDS011;52661;51.364;6.054;2024-02-04T13:46:40;5.37;;;1.13;;
65879;SDS011;52661;51.364;6.054;2024-02-04T13:49:07;3.60;;;1.65;;
65879;SDS011;52661;51.364;6.054;2024-02-04T13:51:33;1.20;;;0.55;;
65879;SDS011;52661;51.364;6.054;2024-02-04T13:53:58;3.50;;;0.52;;
65879;SDS011;52661;51.364;6.054;2024-02-04T13:56:24;2.72;;;0.98;;
65879;SDS011;52661;51.364;6.054;2024-02-04T13:58:49;6.32;;;2.17;;
65879;SDS011;52661;51.364;6.054;2024-02-04T14:01:14;3.87;;;1.13;;
65879;SDS011;52661;51.364;6.054;2024-02-04T14:03:40;3.15;;;1.17;;
65879;SDS011;52661;51.364;6.054;2024-02-04T14:06:06;1.00;;;0.55;;
65879;SDS011;52661;51.364;6.054;2024-02-04T14:08:31;1.87;;;0.97;;
65879;SDS011;52661;51.364;6.054;2024-02-04T14:10:56;2.50;;;1.08;;
65879;SDS011;52661;51.364;6.054;2024-02-04T14:13:22;2.60;;;1.02;;
65879;SDS011;52661;51.364;6.054;2024-02-04T14:15:47;5.43;;;1.40;;
65879;SDS011;52661;51.364;6.054;2024-02-04T14:18:12;2.13;;;0.77;;
65879;SDS011;52661;51.364;6.054;2024-02-04T14:20:38;2.77;;;1.30;;
65879;SDS011;52661;51.364;6.054;2024-02-04T14:23:03;2.92;;;1.20;;
65879;SDS011;52661;51.364;6.054;2024-02-04T14:25:29;5.40;;;1.52;;
65879;SDS011;52661;51.364;6.054;2024-02-04T14:27:54;1.77;;;0.73;;
65879;SDS011;52661;51.364;6.054;2024-02-04T14:30:19;2.58;;;1.17;;
65879;SDS011;52661;51.364;6.054;2024-02-04T14:32:45;4.75;;;1.08;;
65879;SDS011;52661;51.364;6.054;2024-02-04T14:35:10;2.45;;;0.80;;
65879;SDS011;52661;51.364;6.054;2024-02-04T14:37:36;3.47;;;1.60;;
65879;SDS011;52661;51.364;6.054;2024-02-04T14:40:04;3.30;;;1.63;;
65879;SDS011;52661;51.364;6.054;2024-02-04T14:42:31;5.30;;;1.27;;
65879;SDS011;52661;51.364;6.054;2024-02-04T14:44:57;2.63;;;0.98;;
65879;SDS011;52661;51.364;6.054;2024-02-04T14:47:24;1.30;;;0.43;;
65879;SDS011;52661;51.364;6.054;2024-02-04T14:49:50;2.83;;;0.80;;
65879;SDS011;52661;51.364;6.054;2024-02-04T14:52:15;6.05;;;1.83;;
65879;SDS011;52661;51.364;6.054;2024-02-04T14:54:42;3.78;;;0.98;;
65879;SDS011;52661;51.364;6.054;2024-02-04T14:57:08;2.75;;;1.13;;